Time;durP1;ratioP1;P1;durP2;ratioP2;P2;SDS_P1;SDS_P2;PMS_P1;PMS_P2;Temp;Humidity;BMP_temperature;BMP_pressure;BME280_temperature;BME280_humidity;BME280_pressure;Samples;Min_cycle;Max_cycle;Signal;HPM_P1;HPM_P2
2022/04/07 00:00:06;;;;;;;17.00;14.85;;;;;;;11.19;62.90;101333.36;1753300;82;21051;-67
2022/04/07 00:02:33;;;;;;;17.32;15.35;;;;;;;11.17;62.81;101326.02;1753548;82;20991;-67
2022/04/07 00:05:00;;;;;;;17.12;14.07;;;;;;;11.15;62.92;101326.02;1753792;82;20990;-67
2022/04/07 00:07:27;;;;;;;15.40;13.83;;;;;;;11.15;62.76;101325.14;1753027;81;21018;-67
2022/04/07 00:09:55;;;;;;;17.48;14.50;;;;;;;11.13;62.75;101326.47;1754284;82;21026;-67
2022/04/07 00:12:22;;;;;;;16.00;14.33;;;;;;;11.11;62.81;101317.83;1759997;81;21050;-67
2022/04/07 00:14:49;;;;;;;15.23;13.72;;;;;;;11.11;62.77;101317.83;1778956;81;21546;-67
2022/04/07 00:17:17;;;;;;;20.20;14.93;;;;;;;11.10;62.79;101316.13;1779231;81;21011;-67
2022/04/07 00:19:43;;;;;;;17.67;13.95;;;;;;;11.09;62.79;101314.38;1778915;79;21007;-67
2022/04/07 00:22:10;;;;;;;16.57;14.13;;;;;;;11.08;62.94;101314.41;1778852;81;21011;-67
2022/04/07 00:24:38;;;;;;;16.85;13.62;;;;;;;11.06;63.05;101308.37;1765484;81;21053;-67
2022/04/07 00:27:05;;;;;;;18.05;14.58;;;;;;;11.06;62.99;101313.14;1779083;81;21030;-68
2022/04/07 00:29:33;;;;;;;19.10;13.58;;;;;;;11.05;63.01;101307.50;1779295;81;21050;-67
2022/04/07 00:32:05;;;;;;;20.85;14.03;;;;;;;11.05;63.19;101300.99;1779023;81;21507;-67
2022/04/07 00:34:31;;;;;;;17.77;12.68;;;;;;;11.07;63.22;101304.86;1776110;81;21019;-67
2022/04/07 00:36:59;;;;;;;15.15;12.50;;;;;;;11.07;63.29;101299.66;1769082;81;21027;-67
2022/04/07 00:39:26;;;;;;;17.32;12.65;;;;;;;11.08;63.31;101297.05;1779075;81;21046;-67
2022/04/07 00:41:54;;;;;;;19.85;13.45;;;;;;;11.11;63.27;101294.82;1779145;81;21467;-67
2022/04/07 00:44:22;;;;;;;15.38;13.15;;;;;;;11.12;63.31;101296.55;1779027;81;21013;-67
2022/04/07 00:46:49;;;;;;;18.15;12.88;;;;;;;11.12;63.36;101293.52;1751043;81;21073;-67
2022/04/07 00:49:16;;;;;;;18.85;13.60;;;;;;;11.15;63.29;101292.15;1769056;81;21023;-67
2022/04/07 00:51:43;;;;;;;18.70;13.90;;;;;;;11.16;63.22;101284.77;1778308;81;21470;-67
2022/04/07 00:54:11;;;;;;;16.82;13.03;;;;;;;11.17;63.27;101286.47;1779206;81;20983;-67
2022/04/07 00:56:39;;;;;;;17.20;11.75;;;;;;;11.18;63.29;101283.00;1779072;81;21074;-67
2022/04/07 00:59:06;;;;;;;17.57;11.80;;;;;;;11.21;63.26;101289.45;1778967;81;21038;-67
2022/04/07 01:01:34;;;;;;;15.10;12.07;;;;;;;11.22;63.24;101278.16;1771147;81;21058;-67
2022/04/07 01:04:01;;;;;;;17.98;12.63;;;;;;;11.24;63.28;101282.03;1774206;79;21034;-67
2022/04/07 01:06:29;;;;;;;15.90;11.28;;;;;;;11.26;63.34;101282.44;1778952;81;21011;-67
2022/04/07 01:08:58;;;;;;;17.92;11.88;;;;;;;11.27;63.37;101275.02;1779405;81;21019;-67
2022/04/07 01:11:26;;;;;;;15.40;12.45;;;;;;;11.31;63.43;101275.38;1779061;81;21015;-67
2022/04/07 01:13:53;;;;;;;13.22;11.03;;;;;;;11.34;63.49;101270.14;1737653;81;21046;-67
2022/04/07 01:16:25;;;;;;;15.58;10.75;;;;;;;11.36;63.43;101268.36;1753626;82;21034;-66
2022/04/07 01:18:52;;;;;;;14.05;11.30;;;;;;;11.40;63.54;101267.43;1753490;82;21027;-66
2022/04/07 01:21:19;;;;;;;19.45;11.55;;;;;;;11.43;63.62;101257.41;1753804;82;21003;-66
2022/04/07 01:24:07;;;;;;;12.15;10.03;;;;;;;11.48;63.58;101255.13;1753517;82;21480;-66
2022/04/07 01:26:41;;;;;;;17.15;10.68;;;;;;;11.52;63.58;101255.08;1689816;84;21585;-66
2022/04/07 01:29:15;;;;;;;15.78;9.73;;;;;;;11.56;63.62;101252.84;1651070;86;21022;-66
2022/04/07 01:31:42;;;;;;;11.85;8.88;;;;;;;11.58;63.71;101248.45;1594818;89;21093;-66
2022/04/07 01:34:16;;;;;;;14.20;9.20;;;;;;;11.61;63.80;101248.38;1597007;89;21067;-67
2022/04/07 01:36:45;;;;;;;14.75;10.48;;;;;;;11.64;63.82;101247.05;1578054;90;21058;-66
2022/04/07 01:39:18;;;;;;;16.77;9.85;;;;;;;11.66;63.89;101243.56;1590367;89;21105;-66
2022/04/07 01:41:44;;;;;;;18.70;9.80;;;;;;;11.69;63.95;101240.87;1597578;89;21585;-66
2022/04/07 01:44:10;;;;;;;13.93;9.35;;;;;;;11.73;64.03;101240.37;1592410;89;21052;-66
2022/04/07 01:46:39;;;;;;;16.85;9.75;;;;;;;11.75;64.06;101235.98;1596840;89;21070;-66
2022/04/07 01:49:07;;;;;;;11.05;9.05;;;;;;;11.79;63.99;101238.95;1597526;89;21118;-66
2022/04/07 01:51:34;;;;;;;12.60;9.70;;;;;;;11.81;63.95;101233.30;1595093;89;21079;-66
2022/04/07 01:54:02;;;;;;;11.60;8.73;;;;;;;11.84;63.87;101233.22;1601803;89;22268;-66
2022/04/07 01:56:32;;;;;;;13.75;9.23;;;;;;;11.85;63.89;101233.65;1565429;89;21088;-66
2022/04/07 01:58:59;;;;;;;11.75;8.38;;;;;;;11.88;63.80;101229.66;1594539;89;21030;-67
2022/04/07 02:01:27;;;;;;;11.95;8.23;;;;;;;11.89;63.70;101227.48;1596505;89;21105;-66
2022/04/07 02:03:54;;;;;;;14.20;8.93;;;;;;;11.91;63.67;101219.19;1612227;88;21116;-66
2022/04/07 02:06:25;;;;;;;11.30;8.50;;;;;;;11.92;63.57;101218.28;1615559;88;21083;-67
2022/04/07 02:08:51;;;;;;;13.75;8.35;;;;;;;11.93;63.47;101212.19;1557770;90;21158;-67
2022/04/07 02:11:18;;;;;;;10.98;7.78;;;;;;;11.93;63.43;101215.63;1618089;88;21064;-68
2022/04/07 02:13:45;;;;;;;8.63;6.97;;;;;;;11.94;63.41;101212.58;1628385;88;21575;-67
2022/04/07 02:16:13;;;;;;;12.90;6.55;;;;;;;11.93;63.39;101206.97;1635426;88;21131;-67
2022/04/07 02:18:40;;;;;;;10.80;7.00;;;;;;;11.94;63.35;101211.28;1643537;85;21050;-67
2022/04/07 02:21:07;;;;;;;12.00;7.03;;;;;;;11.93;63.36;101206.97;1677556;85;21039;-67
2022/04/07 02:23:41;;;;;;;9.98;6.45;;;;;;;11.93;63.26;101205.20;1681701;85;21106;-67
2022/04/07 02:26:05;;;;;;;11.30;6.20;;;;;;;11.93;63.27;101205.20;1678497;85;21511;-67
2022/04/07 02:28:32;;;;;;;10.50;5.78;;;;;;;11.93;63.29;101197.84;1697193;81;21051;-67
2022/04/07 02:30:59;;;;;;;8.40;4.70;;;;;;;11.93;63.19;101196.54;1779362;81;21010;-67
2022/04/07 02:33:26;;;;;;;9.05;4.80;;;;;;;11.92;63.17;101196.11;1769226;81;21554;-67
2022/04/07 02:35:53;;;;;;;9.00;4.87;;;;;;;11.91;63.16;101195.71;1779388;81;21074;-67
2022/04/07 02:38:20;;;;;;;9.78;4.35;;;;;;;11.90;63.12;101197.89;1779558;79;21051;-67
2022/04/07 02:40:48;;;;;;;12.18;4.65;;;;;;;11.88;63.14;101198.37;1779052;80;21058;-67
2022/04/07 02:43:16;;;;;;;5.62;4.10;;;;;;;11.87;63.15;101194.06;1779409;79;21042;-67
2022/04/07 02:45:43;;;;;;;5.78;3.98;;;;;;;11.86;63.31;101191.89;1779344;81;21023;-67
2022/04/07 02:48:11;;;;;;;11.80;4.30;;;;;;;11.85;63.37;101195.84;1779111;81;21026;-67
2022/04/07 02:50:39;;;;;;;7.80;3.98;;;;;;;11.86;63.46;101200.14;1779161;81;21008;-67
2022/04/07 02:53:07;;;;;;;7.60;3.75;;;;;;;11.85;63.43;101194.53;1779038;81;21003;-67
2022/04/07 02:55:37;;;;;;;9.48;4.15;;;;;;;11.86;63.45;101201.02;1779403;81;21007;-67
2022/04/07 02:58:04;;;;;;;10.23;4.20;;;;;;;11.87;63.42;101195.36;1758804;81;20959;-67
2022/04/07 03:00:31;;;;;;;9.83;3.80;;;;;;;11.88;63.44;101198.37;1779151;81;21066;-67
2022/04/07 03:02:59;;;;;;;9.48;3.85;;;;;;;11.86;63.46;101194.50;1779138;79;20999;-67
2022/04/07 03:05:25;;;;;;;9.55;3.70;;;;;;;11.87;63.36;101201.88;1779124;81;21019;-67
2022/04/07 03:07:53;;;;;;;5.47;2.72;;;;;;;11.86;63.51;101206.66;1779614;81;20959;-67
2022/04/07 03:10:21;;;;;;;6.45;3.45;;;;;;;11.86;63.51;101197.54;1778985;81;20983;-67
2022/04/07 03:12:49;;;;;;;10.00;3.72;;;;;;;11.87;63.59;101200.58;1780330;80;20991;-67
2022/04/07 03:15:16;;;;;;;13.15;4.53;;;;;;;11.88;63.56;101198.37;1787316;80;21081;-67
2022/04/07 03:17:44;;;;;;;12.82;3.58;;;;;;;11.89;63.49;101200.10;1787440;79;21003;-67
2022/04/07 03:20:11;;;;;;;9.48;3.67;;;;;;;11.88;63.55;101194.45;1787666;80;21074;-67
2022/04/07 03:22:40;;;;;;;11.88;3.50;;;;;;;11.90;63.70;101201.80;1787529;80;21358;-67
2022/04/07 03:25:08;;;;;;;10.40;3.30;;;;;;;11.90;63.67;101199.20;1787507;80;21474;-67
2022/04/07 03:27:37;;;;;;;9.45;3.47;;;;;;;11.91;63.73;101198.32;1787788;80;21507;-67
2022/04/07 03:30:06;;;;;;;9.40;3.72;;;;;;;11.93;63.69;101197.84;1787309;80;21046;-67
2022/04/07 03:32:33;;;;;;;10.35;3.10;;;;;;;11.91;63.79;101191.80;1787438;80;21006;-67
2022/04/07 03:35:01;;;;;;;8.65;3.40;;;;;;;11.93;63.77;101192.16;1787305;80;21065;-67
2022/04/07 03:37:29;;;;;;;5.70;3.05;;;;;;;11.93;63.83;101190.86;1787473;80;21018;-67
2022/04/07 03:39:56;;;;;;;10.45;3.70;;;;;;;11.93;63.85;101183.50;1787354;80;21057;-67
2022/04/07 03:42:23;;;;;;;10.55;3.45;;;;;;;11.94;63.89;101183.90;1787386;80;21399;-67
2022/04/07 03:44:50;;;;;;;11.88;3.92;;;;;;;11.94;63.93;101182.59;1787588;80;21062;-67
2022/04/07 03:47:17;;;;;;;8.65;3.55;;;;;;;11.95;63.93;101183.02;1787480;80;21058;-67
2022/04/07 03:49:45;;;;;;;11.90;3.98;;;;;;;11.95;63.90;101176.50;1787383;80;21026;-67
2022/04/07 03:52:15;;;;;;;12.05;3.95;;;;;;;11.95;63.96;101173.90;1766190;80;21067;-67
2022/04/07 03:54:41;;;;;;;9.58;3.17;;;;;;;11.96;63.96;101174.30;1787562;80;21007;-67
2022/04/07 03:57:08;;;;;;;10.15;3.37;;;;;;;11.97;63.94;101173.42;1782818;80;21510;-67
2022/04/07 03:59:38;;;;;;;9.88;3.80;;;;;;;11.99;64.00;101171.64;1787266;79;21499;-67
2022/04/07 04:02:06;;;;;;;8.40;3.58;;;;;;;11.99;64.02;101172.94;1787600;80;21538;-67
2022/04/07 04:04:35;;;;;;;8.28;3.35;;;;;;;12.01;64.05;101173.77;1787645;80;21071;-67
2022/04/07 04:07:02;;;;;;;12.45;3.62;;;;;;;12.03;64.14;101182.42;1782395;80;20982;-67
2022/04/07 04:09:31;;;;;;;10.50;3.55;;;;;;;12.05;64.10;101192.38;1787454;80;21011;-67
2022/04/07 04:11:58;;;;;;;12.93;5.03;;;;;;;12.06;64.13;101188.86;1766275;80;21069;-67
2022/04/07 04:14:25;;;;;;;7.45;3.50;;;;;;;12.09;64.19;101191.42;1787394;80;21082;-67
2022/04/07 04:16:53;;;;;;;12.73;3.47;;;;;;;12.10;64.26;101189.20;1782266;80;21027;-66
2022/04/07 04:19:21;;;;;;;11.20;4.70;;;;;;;12.14;64.22;101183.03;1787489;80;21535;-66
2022/04/07 04:21:50;;;;;;;11.88;4.10;;;;;;;12.16;64.25;101186.47;1787340;80;21498;-66
2022/04/07 04:24:17;;;;;;;10.23;3.42;;;;;;;12.19;64.29;101174.23;1787381;80;21013;-66
2022/04/07 04:26:45;;;;;;;7.62;3.10;;;;;;;12.24;64.19;101171.53;1787529;80;21551;-66
2022/04/07 04:29:12;;;;;;;11.15;4.40;;;;;;;12.27;64.12;101166.23;1787490;80;21506;-66
2022/04/07 04:31:39;;;;;;;9.00;3.87;;;;;;;12.30;63.95;101171.40;1787248;80;21550;-66
2022/04/07 04:34:07;;;;;;;9.43;3.52;;;;;;;12.32;63.76;101170.92;1787693;80;21482;-66
2022/04/07 04:36:35;;;;;;;11.70;3.60;;;;;;;12.33;63.65;101171.31;1787433;80;21030;-66
2022/04/07 04:39:02;;;;;;;13.45;3.80;;;;;;;12.33;63.59;101168.70;1787884;80;21441;-66
2022/04/07 04:41:31;;;;;;;11.22;4.15;;;;;;;12.35;63.55;101172.58;1766079;80;21534;-67
2022/04/07 04:44:00;;;;;;;10.60;3.95;;;;;;;12.35;63.51;101163.00;1787558;80;21022;-67
2022/04/07 04:46:27;;;;;;;8.23;3.98;;;;;;;12.37;63.48;101167.74;1782662;80;20955;-67
2022/04/07 04:48:55;;;;;;;12.43;4.03;;;;;;;12.37;63.41;101167.74;1787363;80;21096;-67
2022/04/07 04:51:21;;;;;;;11.28;4.17;;;;;;;12.39;63.35;101171.17;1787730;80;21494;-66
2022/04/07 04:53:49;;;;;;;9.63;3.60;;;;;;;12.40;63.34;101169.43;1781130;80;21522;-66
2022/04/07 04:56:16;;;;;;;10.35;3.95;;;;;;;12.41;63.25;101164.16;1787409;80;21026;-66
2022/04/07 04:58:44;;;;;;;11.05;3.77;;;;;;;12.43;63.30;101161.08;1787614;80;20974;-66
2022/04/07 05:01:11;;;;;;;9.10;3.98;;;;;;;12.47;63.37;101163.19;1787352;80;21003;-66
2022/04/07 05:03:38;;;;;;;10.35;4.28;;;;;;;12.50;63.47;101160.05;1787889;80;21058;-66
2022/04/07 05:06:05;;;;;;;10.85;3.80;;;;;;;12.56;63.42;101162.96;1787379;79;21050;-66
2022/04/07 05:08:34;;;;;;;14.18;3.77;;;;;;;12.58;63.21;101165.95;1787442;80;21529;-66
2022/04/07 05:11:01;;;;;;;12.85;4.22;;;;;;;12.60;63.03;101168.08;1787674;80;21018;-66
2022/04/07 05:13:30;;;;;;;10.88;3.60;;;;;;;12.62;62.89;101167.59;1787347;80;21018;-66
2022/04/07 05:15:56;;;;;;;9.13;3.52;;;;;;;12.63;62.86;101167.99;1787450;80;21093;-67
2022/04/07 05:18:24;;;;;;;8.98;3.58;;;;;;;12.63;62.79;101161.47;1787613;80;21026;-66
2022/04/07 05:20:52;;;;;;;10.63;3.60;;;;;;;12.65;62.72;101162.76;1787543;80;21050;-66
2022/04/07 05:23:19;;;;;;;9.43;4.17;;;;;;;12.65;62.70;101157.53;1787680;80;21066;-66
2022/04/07 05:25:47;;;;;;;7.05;3.80;;;;;;;12.66;62.68;101157.48;1787368;79;21054;-66
2022/04/07 05:28:14;;;;;;;10.75;4.42;;;;;;;12.65;62.75;101153.15;1766797;80;21486;-66
2022/04/07 05:30:42;;;;;;;11.18;3.20;;;;;;;12.67;62.67;101150.08;1787354;80;21025;-66
2022/04/07 05:33:11;;;;;;;14.70;4.95;;;;;;;12.69;62.66;101146.98;1787445;80;20991;-66
2022/04/07 05:35:40;;;;;;;11.75;4.45;;;;;;;12.71;62.57;101145.64;1766970;79;21010;-66
2022/04/07 05:38:08;;;;;;;8.80;3.83;;;;;;;12.71;62.55;101143.89;1787943;80;21007;-67
2022/04/07 05:40:35;;;;;;;6.40;2.95;;;;;;;12.74;62.55;101146.41;1787489;80;21007;-66
2022/04/07 05:43:04;;;;;;;9.70;3.70;;;;;;;12.78;62.67;101146.75;1787444;80;21539;-68
2022/04/07 05:45:31;;;;;;;8.05;3.83;;;;;;;12.85;62.61;101147.02;1787421;80;21108;-65
2022/04/07 05:47:58;;;;;;;9.93;3.45;;;;;;;12.93;62.38;101142.46;1787320;80;21002;-65
2022/04/07 05:50:25;;;;;;;9.45;3.87;;;;;;;13.02;62.03;101139.59;1787599;79;21034;-66
2022/04/07 05:52:52;;;;;;;5.65;2.80;;;;;;;13.10;61.92;101124.22;1787555;80;21042;-65
2022/04/07 05:55:20;;;;;;;10.35;3.30;;;;;;;13.26;61.99;101129.00;1787695;80;21537;-66
2022/04/07 05:57:49;;;;;;;8.38;2.60;;;;;;;13.52;61.32;101128.27;1787473;80;21042;-65
2022/04/07 06:00:18;;;;;;;8.48;2.77;;;;;;;13.81;60.63;101128.31;1787620;80;21409;-65
2022/04/07 06:02:46;;;;;;;6.25;2.60;;;;;;;14.14;59.78;101132.55;1787719;80;21026;-65
2022/04/07 06:07:42;;;;;;;6.37;2.40;;;;;;;15.01;57.99;101130.64;1690304;85;21041;-66
2022/04/07 06:10:11;;;;;;;10.00;2.90;;;;;;;15.57;56.56;101130.87;1691784;85;21017;-66
2022/04/07 06:12:42;;;;;;;7.40;2.92;;;;;;;16.13;54.93;101126.13;1691813;85;21509;-66
2022/04/07 06:15:10;;;;;;;6.12;2.52;;;;;;;16.70;53.72;101128.23;1655191;86;21558;-65
2022/04/07 06:17:40;;;;;;;8.65;2.65;;;;;;;17.22;52.05;101127.77;1654132;86;21430;-65
2022/04/07 06:20:10;;;;;;;6.35;2.40;;;;;;;17.65;50.80;101131.58;1653937;87;21104;-65
2022/04/07 06:22:41;;;;;;;8.15;2.95;;;;;;;18.01;49.38;101132.15;1651520;87;21609;-67
2022/04/07 06:25:09;;;;;;;5.17;2.92;;;;;;;18.18;48.17;101130.88;1675128;86;21034;-65
2022/04/07 06:27:43;;;;;;;6.75;2.40;;;;;;;18.11;47.93;101119.80;1674920;84;21035;-65
2022/04/07 06:30:19;;;;;;;7.05;2.92;;;;;;;17.89;47.60;101119.92;1525694;92;21163;-65
2022/04/07 06:32:48;;;;;;;5.67;2.40;;;;;;;17.58;47.75;101113.02;1519195;92;21112;-65
2022/04/07 06:35:16;;;;;;;6.83;3.08;;;;;;;17.23;48.18;101118.95;1518263;92;21112;-65
2022/04/07 06:40:27;;;;;;;7.15;2.85;;;;;;;16.56;48.94;101110.87;1503658;93;21125;-66
2022/04/07 06:42:56;;;;;;;9.98;3.15;;;;;;;16.23;49.58;101106.02;1504054;93;21153;-66
2022/04/07 06:45:23;;;;;;;7.03;2.95;;;;;;;15.99;50.24;101106.12;1504181;93;21569;-66
2022/04/07 06:47:51;;;;;;;5.85;2.47;;;;;;;15.79;50.71;101102.06;1503577;93;21630;-66
2022/04/07 06:50:19;;;;;;;6.25;3.10;;;;;;;15.61;50.94;101105.38;1504080;93;21614;-67
2022/04/07 06:52:46;;;;;;;7.17;2.55;;;;;;;15.43;51.30;101111.67;1506147;93;21073;-66
2022/04/07 06:55:14;;;;;;;8.05;2.60;;;;;;;15.28;51.51;101103.48;1506384;93;21113;-66
2022/04/07 06:57:58;;;;;;;6.53;2.70;;;;;;;15.13;51.81;101100.08;1505687;93;21093;-66
2022/04/07 07:00:31;;;;;;;7.00;2.80;;;;;;;15.01;52.08;101100.50;1506949;93;21089;-64
2022/04/07 07:03:00;;;;;;;7.08;2.75;;;;;;;14.88;52.36;101097.44;1511462;93;21153;-65
2022/04/07 07:05:30;;;;;;;6.83;2.77;;;;;;;14.78;52.63;101096.04;1511519;93;21147;-65
2022/04/07 07:07:56;;;;;;;5.47;2.40;;;;;;;14.71;52.80;101092.38;1503280;95;21073;-65
2022/04/07 07:10:25;;;;;;;7.03;2.35;;;;;;;14.62;52.86;101086.54;1523185;92;21061;-65
2022/04/07 07:12:53;;;;;;;6.55;2.92;;;;;;;14.57;52.86;101081.89;1508445;94;21139;-65
2022/04/07 07:15:22;;;;;;;5.95;2.75;;;;;;;14.53;52.97;101077.66;1545892;92;21093;-64
2022/04/07 07:17:51;;;;;;;9.43;3.72;;;;;;;14.50;53.32;101073.85;1524127;94;21151;-64
2022/04/07 07:20:18;;;;;;;4.95;2.90;;;;;;;14.50;53.45;101070.38;1524948;94;21133;-66
2022/04/07 07:22:48;;;;;;;8.48;2.95;;;;;;;14.49;53.56;101070.81;1557755;92;21101;-66
2022/04/07 07:25:15;;;;;;;5.92;3.20;;;;;;;14.46;53.68;101074.00;1548614;93;21581;-66
2022/04/07 07:27:43;;;;;;;7.12;3.15;;;;;;;14.41;53.52;101071.52;1584609;90;21064;-66
2022/04/07 07:30:12;;;;;;;6.42;2.45;;;;;;;14.35;53.71;101079.57;1596093;90;21094;-66
2022/04/07 07:32:39;;;;;;;6.78;2.60;;;;;;;14.29;53.88;101086.31;1607224;89;21066;-67
2022/04/07 07:35:09;;;;;;;8.40;3.05;;;;;;;14.25;53.85;101083.36;1602555;89;21080;-67
2022/04/07 07:37:36;;;;;;;6.25;2.30;;;;;;;14.21;53.96;101073.03;1605704;89;21080;-67
2022/04/07 07:40:07;;;;;;;6.62;2.55;;;;;;;14.16;53.97;101074.47;1606518;89;21084;-67
2022/04/07 07:42:36;;;;;;;4.33;2.15;;;;;;;14.13;54.04;101076.34;1547461;91;21087;-66
2022/04/07 07:45:06;;;;;;;5.28;2.60;;;;;;;14.08;53.94;101069.94;1576661;90;21025;-68
2022/04/07 07:47:33;;;;;;;10.75;2.60;;;;;;;14.03;53.83;101069.23;1577234;90;21081;-67
2022/04/07 07:50:01;;;;;;;6.30;2.67;;;;;;;13.98;53.88;101075.05;1586896;90;21102;-66
2022/04/07 07:52:29;;;;;;;5.40;2.60;;;;;;;13.96;54.00;101072.94;1586696;90;21057;-66
2022/04/07 07:54:56;;;;;;;7.22;2.50;;;;;;;13.91;53.96;101076.12;1564645;90;21065;-66
2022/04/07 07:57:23;;;;;;;7.58;3.27;;;;;;;13.89;54.17;101074.00;1569439;90;21090;-66
2022/04/07 07:59:51;;;;;;;6.78;2.72;;;;;;;13.88;54.31;101069.70;1600184;88;21132;-67
2022/04/07 08:02:21;;;;;;;8.13;2.62;;;;;;;13.87;54.51;101067.97;1621868;87;21031;-67
2022/04/07 08:04:48;;;;;;;14.40;2.77;;;;;;;13.88;54.51;101067.08;1622201;88;21087;-66
2022/04/07 08:07:15;;;;;;;8.40;3.15;;;;;;;13.87;54.64;101055.75;1623277;88;21075;-66
2022/04/07 08:09:42;;;;;;;7.42;3.75;;;;;;;13.90;54.69;101057.42;1624477;88;21075;-66
2022/04/07 08:12:09;;;;;;;7.12;2.15;;;;;;;13.93;54.79;101054.70;1630718;87;21089;-66
2022/04/07 08:14:37;;;;;;;6.53;2.80;;;;;;;13.96;54.71;101056.37;1637759;85;21060;-67
2022/04/07 08:17:05;;;;;;;6.62;2.65;;;;;;;14.01;54.70;101056.66;1670766;85;21128;-67
2022/04/07 08:19:35;;;;;;;8.58;3.58;;;;;;;14.01;54.78;101048.80;1664757;85;21054;-67
2022/04/07 08:22:05;;;;;;;10.18;3.67;;;;;;;14.04;54.78;101050.00;1661137;85;21105;-67
2022/04/07 08:24:32;;;;;;;6.92;2.50;;;;;;;14.06;54.79;101050.81;1676151;85;21040;-67
2022/04/07 08:27:00;;;;;;;9.55;3.27;;;;;;;14.10;54.77;101044.58;1668074;85;21542;-67
2022/04/07 08:29:27;;;;;;;9.80;2.87;;;;;;;14.11;54.76;101040.20;1661180;85;21039;-67
2022/04/07 08:31:57;;;;;;;6.43;3.77;;;;;;;14.14;54.85;101037.47;1666783;85;21023;-65
2022/04/07 08:34:25;;;;;;;10.43;4.70;;;;;;;14.17;54.84;101038.25;1665399;85;21038;-67
2022/04/07 08:36:53;;;;;;;7.40;3.58;;;;;;;14.17;54.92;101027.78;1659976;85;21538;-67
2022/04/07 08:39:20;;;;;;;8.85;3.62;;;;;;;14.21;54.87;101025.47;1709720;80;21039;-67
2022/04/07 08:41:50;;;;;;;8.18;3.67;;;;;;;14.25;54.72;101029.70;1743827;80;21142;-67
2022/04/07 08:44:17;;;;;;;6.47;3.02;;;;;;;14.28;54.66;101021.77;1735285;81;21078;-65
2022/04/07 08:49:22;;;;;;;7.45;3.33;;;;;;;14.31;54.58;101015.14;1708224;84;21032;-65
2022/04/07 08:51:51;;;;;;;10.03;3.92;;;;;;;14.33;54.60;101014.63;1700844;84;21468;-65
2022/04/07 08:54:19;;;;;;;7.58;3.40;;;;;;;14.34;54.50;101016.33;1688513;84;21017;-67
2022/04/07 08:56:47;;;;;;;7.97;3.50;;;;;;;14.36;54.39;101014.52;1701885;84;21477;-65
2022/04/07 08:59:16;;;;;;;12.25;3.75;;;;;;;14.39;54.37;101012.25;1689101;83;21060;-66
2022/04/07 09:01:44;;;;;;;11.15;4.17;;;;;;;14.41;54.32;101013.92;1706777;84;21521;-67
2022/04/07 09:04:13;;;;;;;7.78;3.62;;;;;;;14.43;54.21;101012.11;1707255;84;21049;-66
2022/04/07 09:06:42;;;;;;;14.63;4.30;;;;;;;14.42;54.20;101003.87;1701370;84;21097;-67
2022/04/07 09:09:20;;;;;;;14.07;4.25;;;;;;;14.41;54.16;101006.07;1698830;84;21069;-66
2022/04/07 09:11:47;;;;;;;11.00;3.92;;;;;;;14.39;54.11;101009.19;1659097;86;21050;-66
2022/04/07 09:14:15;;;;;;;11.63;4.15;;;;;;;14.39;54.12;100998.72;1637119;86;21113;-66
2022/04/07 09:16:44;;;;;;;12.68;3.83;;;;;;;14.38;54.17;100998.33;1654170;87;21093;-66
2022/04/07 09:19:13;;;;;;;9.68;4.42;;;;;;;14.39;54.21;100986.94;1637982;86;21050;-65
2022/04/07 09:21:41;;;;;;;10.70;4.55;;;;;;;14.39;54.23;100986.94;1656656;87;21550;-66
2022/04/07 09:24:08;;;;;;;15.43;3.98;;;;;;;14.37;54.23;100977.42;1656747;86;21046;-66
2022/04/07 09:26:42;;;;;;;11.15;3.65;;;;;;;14.36;54.28;100984.41;1661010;86;21113;-65
2022/04/07 09:29:11;;;;;;;11.48;4.45;;;;;;;14.35;54.48;100980.09;1656029;87;21066;-66
2022/04/07 09:31:39;;;;;;;11.85;4.28;;;;;;;14.35;54.55;100972.24;1657016;86;21107;-66
2022/04/07 09:34:06;;;;;;;10.25;4.72;;;;;;;14.37;54.50;100973.05;1656935;85;21587;-66
2022/04/07 09:36:35;;;;;;;9.73;3.80;;;;;;;14.37;54.55;100970.42;1658416;85;21288;-67
2022/04/07 09:39:02;;;;;;;11.83;4.22;;;;;;;14.40;54.48;100965.11;1657538;86;21522;-66
2022/04/07 09:41:32;;;;;;;14.35;4.92;;;;;;;14.40;54.53;100966.41;1657820;86;21046;-66
2022/04/07 09:44:00;;;;;;;8.53;3.90;;;;;;;14.38;54.61;100959.06;1656623;86;21070;-67
2022/04/07 09:46:37;;;;;;;13.45;4.42;;;;;;;14.40;54.50;100958.56;1677139;84;21077;-66
2022/04/07 09:49:09;;;;;;;11.90;4.58;;;;;;;14.38;54.56;100955.14;1691972;84;21097;-66
2022/04/07 09:51:46;;;;;;;20.20;4.65;;;;;;;14.33;54.89;100945.27;1689513;83;21070;-66
2022/04/07 09:54:16;;;;;;;13.28;3.90;;;;;;;14.32;55.03;100945.32;1639035;87;21088;-66
2022/04/07 09:56:47;;;;;;;17.00;4.80;;;;;;;14.29;55.14;100937.11;1632432;87;21132;-66
2022/04/07 09:59:17;;;;;;;11.15;4.65;;;;;;;14.28;55.17;100930.16;1636958;87;21036;-67
2022/04/07 10:01:44;;;;;;;16.15;5.03;;;;;;;14.29;55.19;100920.10;1635920;87;21062;-67
2022/04/07 10:04:12;;;;;;;17.75;6.28;;;;;;;14.29;55.45;100914.86;1637387;87;21088;-66
2022/04/07 10:06:39;;;;;;;17.80;4.85;;;;;;;14.29;55.56;100906.15;1631569;87;21062;-67
2022/04/07 10:09:08;;;;;;;10.55;4.00;;;;;;;14.29;55.76;100903.09;1669026;85;21048;-66
2022/04/07 10:11:36;;;;;;;12.45;4.35;;;;;;;14.28;55.90;100897.44;1683907;85;21481;-66
2022/04/07 10:14:08;;;;;;;15.32;4.53;;;;;;;14.29;56.01;100893.92;1686259;85;20999;-67
2022/04/07 10:16:35;;;;;;;13.00;4.92;;;;;;;14.29;56.04;100893.06;1670214;85;21191;-66
2022/04/07 10:19:14;;;;;;;12.00;4.15;;;;;;;14.30;56.01;100887.77;1685564;85;21058;-66
2022/04/07 10:22:04;;;;;;;14.83;4.25;;;;;;;14.30;56.13;100879.91;1664892;85;21047;-66
2022/04/07 10:24:45;;;;;;;15.03;5.70;;;;;;;14.29;56.23;100875.60;1679387;85;21059;-65
2022/04/07 10:27:12;;;;;;;18.92;4.70;;;;;;;14.28;56.47;100869.95;1686242;85;21051;-65
2022/04/07 10:29:40;;;;;;;14.13;4.45;;;;;;;14.25;56.57;100866.11;1688276;83;21040;-65
2022/04/07 10:32:21;;;;;;;22.42;5.55;;;;;;;14.24;56.85;100863.56;1653157;85;21055;-65
2022/04/07 10:34:58;;;;;;;15.13;4.65;;;;;;;14.24;56.98;100862.25;1677268;85;21095;-65
2022/04/07 10:37:37;;;;;;;13.22;4.62;;;;;;;14.22;57.27;100864.90;1624338;87;21531;-65
2022/04/07 10:40:46;;;;;;;18.90;4.83;;;;;;;14.21;57.35;100860.59;1617870;87;21111;-65
2022/04/07 10:43:21;;;;;;;16.90;6.00;;;;;;;14.21;57.29;100847.95;1618201;88;21055;-66
2022/04/07 10:45:53;;;;;;;14.55;4.70;;;;;;;14.17;57.47;100836.75;1634721;87;21079;-64
2022/04/07 10:48:31;;;;;;;15.58;4.67;;;;;;;14.16;57.67;100838.94;1632812;87;21063;-65
2022/04/07 10:51:04;;;;;;;13.20;4.15;;;;;;;14.17;57.61;100832.82;1667809;84;21072;-65
2022/04/07 10:53:53;;;;;;;16.87;4.30;;;;;;;14.17;57.69;100830.65;1691664;85;21017;-64
2022/04/07 10:58:56;;;;;;;16.37;5.17;;;;;;;14.13;57.77;100808.98;1646939;87;21024;-66
2022/04/07 11:01:34;;;;;;;16.27;4.75;;;;;;;14.11;57.84;100799.47;1650806;87;21054;-67
2022/04/07 11:04:24;;;;;;;12.73;4.35;;;;;;;14.09;58.06;100793.43;1653391;87;21093;-66
2022/04/07 11:07:18;;;;;;;15.50;5.78;;;;;;;14.10;57.85;100785.52;1652715;87;21087;-66
2022/04/07 11:10:01;;;;;;;17.20;4.33;;;;;;;14.09;57.69;100772.05;1688942;84;21500;-66
2022/04/07 11:12:39;;;;;;;10.32;4.33;;;;;;;14.06;57.62;100760.38;1696877;84;21569;-66
2022/04/07 11:15:44;;;;;;;15.98;4.70;;;;;;;14.05;57.61;100753.45;1699512;84;21079;-65
2022/04/07 11:18:50;;;;;;;11.70;3.83;;;;;;;14.03;57.58;100755.27;1694962;84;21014;-64
2022/04/07 11:21:18;;;;;;;10.53;3.80;;;;;;;14.02;57.63;100748.76;1693358;84;21570;-64
2022/04/07 11:23:55;;;;;;;17.65;4.83;;;;;;;13.98;57.72;100748.47;1696215;84;21014;-66
2022/04/07 11:26:26;;;;;;;18.07;5.30;;;;;;;13.96;57.69;100741.99;1696959;84;21054;-67
2022/04/07 11:29:10;;;;;;;12.63;4.10;;;;;;;13.94;57.90;100738.58;1699377;84;21033;-65
2022/04/07 11:31:46;;;;;;;16.23;4.45;;;;;;;13.93;57.86;100732.93;1644721;87;21025;-66
2022/04/07 11:34:49;;;;;;;16.60;4.05;;;;;;;13.91;57.85;100732.13;1565202;91;21369;-65
2022/04/07 11:37:17;;;;;;;17.30;3.72;;;;;;;13.88;57.98;100736.19;1498084;95;21092;-66
2022/04/07 11:39:46;;;;;;;17.82;4.05;;;;;;;13.83;58.03;100736.78;1497820;95;21647;-67